createdAt,value
2022-08-23T00:00:29.718Z,6.57
2022-08-23T00:03:31.933Z,5.38
2022-08-23T00:06:33.954Z,4.30
2022-08-23T00:09:36.199Z,5.72
2022-08-23T00:12:38.737Z,5.82
2022-08-23T00:15:40.665Z,4.70
2022-08-23T00:18:42.654Z,4.93
2022-08-23T00:21:52.956Z,5.68
2022-08-23T00:24:54.908Z,5.28
2022-08-23T00:27:56.836Z,5.28
2022-08-23T00:34:01.905Z,5.00
2022-08-23T00:37:05.136Z,6.25
2022-08-23T00:43:32.291Z,4.80
2022-08-23T00:47:06.346Z,6.10
2022-08-23T00:50:26.276Z,5.78
2022-08-23T00:53:32.309Z,6.25
2022-08-23T00:56:35.760Z,5.80
2022-08-23T00:59:38.001Z,6.03
2022-08-23T01:02:41.406Z,6.50
2022-08-23T01:06:01.599Z,6.05
2022-08-23T01:09:09.231Z,5.10
2022-08-23T01:12:40.480Z,6.68
2022-08-23T01:15:48.979Z,5.63
2022-08-23T01:18:51.941Z,6.18
2022-08-23T01:22:05.788Z,5.13
2022-08-23T01:25:11.543Z,6.68
2022-08-23T01:28:13.497Z,6.20
2022-08-23T01:31:16.547Z,6.10
2022-08-23T01:34:18.519Z,6.65
2022-08-23T01:37:22.074Z,5.65
2022-08-23T01:40:24.077Z,6.57
2022-08-23T01:43:26.423Z,6.70
2022-08-23T01:46:28.505Z,7.60
2022-08-23T01:49:30.474Z,6.78
2022-08-23T01:52:34.614Z,6.53
2022-08-23T01:55:37.086Z,7.47
2022-08-23T01:58:39.097Z,7.07
2022-08-23T02:01:41.132Z,6.63
2022-08-23T02:04:43.115Z,7.38
2022-08-23T02:07:45.442Z,7.03
2022-08-23T02:10:47.437Z,7.03
2022-08-23T02:13:51.383Z,7.05
2022-08-23T02:17:04.375Z,7.10
2022-08-23T02:20:09.072Z,7.03
2022-08-23T02:23:12.927Z,7.05
2022-08-23T02:26:15.506Z,6.75
2022-08-23T02:29:19.332Z,7.57
2022-08-23T02:32:23.451Z,7.20
2022-08-23T02:35:29.091Z,7.43
2022-08-23T02:38:30.955Z,7.93
2022-08-23T02:41:33.794Z,7.57
2022-08-23T02:44:35.836Z,7.53
2022-08-23T02:47:37.949Z,8.45
2022-08-23T02:50:39.881Z,7.38
2022-08-23T02:53:41.807Z,7.90
2022-08-23T02:56:43.929Z,7.05
2022-08-23T02:59:45.888Z,8.38
2022-08-23T03:02:48.366Z,8.43
2022-08-23T03:05:50.729Z,9.50
2022-08-23T03:08:53.000Z,8.67
2022-08-23T03:11:54.958Z,10.90
2022-08-23T03:14:57.229Z,10.70
2022-08-23T03:18:00.481Z,8.98
2022-08-23T03:21:02.743Z,8.57
2022-08-23T03:24:09.655Z,10.02
2022-08-23T03:27:12.590Z,8.70
2022-08-23T03:30:19.160Z,9.93
2022-08-23T03:33:22.371Z,10.00
2022-08-23T03:36:28.281Z,9.00
2022-08-23T03:39:30.361Z,10.10
2022-08-23T03:42:32.292Z,11.23
2022-08-23T03:45:34.218Z,9.70
2022-08-23T03:48:36.228Z,9.85
2022-08-23T03:51:38.195Z,10.52
2022-08-23T03:54:40.168Z,12.48
2022-08-23T03:57:42.249Z,12.13
2022-08-23T04:00:44.193Z,11.48
2022-08-23T04:03:47.816Z,11.68
2022-08-23T04:06:49.757Z,10.80
2022-08-23T04:09:54.967Z,11.43
2022-08-23T04:12:57.773Z,11.50
2022-08-23T04:16:02.969Z,12.47
2022-08-23T04:19:09.960Z,11.38
2022-08-23T04:22:15.903Z,13.57
2022-08-23T04:25:33.675Z,12.80
2022-08-23T04:28:37.946Z,12.23
2022-08-23T04:31:40.112Z,13.57
2022-08-23T04:34:45.450Z,12.18
2022-08-23T04:37:47.614Z,14.30
2022-08-23T04:41:11.134Z,13.20
2022-08-23T04:44:14.849Z,12.70
2022-08-23T04:47:17.800Z,12.10
2022-08-23T04:50:20.059Z,14.10
2022-08-23T04:53:22.248Z,14.47
2022-08-23T04:56:24.215Z,14.53
2022-08-23T04:59:26.112Z,13.90
2022-08-23T05:02:28.163Z,13.45
2022-08-23T05:05:30.621Z,14.82
2022-08-23T05:08:33.198Z,16.35
2022-08-23T05:11:35.164Z,15.88
2022-08-23T05:14:37.149Z,13.98
2022-08-23T05:17:39.436Z,14.50
2022-08-23T05:20:41.335Z,13.23
2022-08-23T05:23:43.247Z,15.13
2022-08-23T05:26:52.643Z,13.50
2022-08-23T05:29:54.611Z,16.55
2022-08-23T05:32:56.581Z,15.63
2022-08-23T05:35:58.634Z,13.93
2022-08-23T05:39:00.564Z,12.98
2022-08-23T05:42:02.928Z,14.10
2022-08-23T05:45:06.130Z,14.48
2022-08-23T05:48:08.185Z,13.43
2022-08-23T05:51:18.909Z,14.30
2022-08-23T05:54:20.842Z,13.75
2022-08-23T05:57:22.815Z,10.77
2022-08-23T06:00:37.252Z,12.80
2022-08-23T06:03:45.812Z,12.05
2022-08-23T06:06:48.581Z,13.55
2022-08-23T06:09:50.506Z,12.65
2022-08-23T06:12:52.477Z,11.52
2022-08-23T06:15:54.970Z,11.90
2022-08-23T06:18:58.293Z,13.02
2022-08-23T06:22:00.227Z,10.77
2022-08-23T06:25:05.508Z,11.40
2022-08-23T06:28:09.508Z,12.25
2022-08-23T06:31:11.712Z,11.45
2022-08-23T06:34:19.205Z,11.13
2022-08-23T06:37:22.954Z,11.40
2022-08-23T06:40:29.093Z,10.52
2022-08-23T06:43:31.395Z,11.25
2022-08-23T06:46:33.432Z,11.17
2022-08-23T06:49:35.848Z,13.15
2022-08-23T06:52:37.779Z,10.82
2022-08-23T06:55:39.644Z,9.45
2022-08-23T06:58:42.051Z,10.32
2022-08-23T07:01:56.308Z,10.18
2022-08-23T07:04:58.901Z,10.85
2022-08-23T07:08:00.820Z,9.27
2022-08-23T07:11:03.092Z,10.85
2022-08-23T07:14:13.064Z,9.20
2022-08-23T07:17:15.260Z,10.45
2022-08-23T07:20:17.225Z,7.93
2022-08-23T07:23:19.161Z,10.95
2022-08-23T07:26:22.781Z,7.82
2022-08-23T07:29:25.345Z,8.63
2022-08-23T07:32:27.429Z,9.40
2022-08-23T07:35:29.552Z,8.77
2022-08-23T07:38:31.591Z,8.00
2022-08-23T07:41:35.303Z,8.70
2022-08-23T07:44:37.358Z,7.20
2022-08-23T07:47:46.783Z,7.63
2022-08-23T07:51:09.722Z,7.63
2022-08-23T07:54:13.449Z,6.63
2022-08-23T07:57:15.368Z,8.80
2022-08-23T08:00:17.569Z,6.80
2022-08-23T08:03:20.132Z,7.23
2022-08-23T08:06:35.191Z,6.88
2022-08-23T08:09:37.097Z,7.22
2022-08-23T08:12:39.122Z,6.65
2022-08-23T08:15:42.384Z,6.35
2022-08-23T08:18:44.427Z,6.82
2022-08-23T08:21:47.310Z,6.97
2022-08-23T08:24:49.261Z,6.70
2022-08-23T08:27:51.207Z,6.70
2022-08-23T08:30:53.352Z,6.30
2022-08-23T08:33:55.346Z,5.67
2022-08-23T08:36:58.869Z,6.70
2022-08-23T08:40:02.707Z,7.50
2022-08-23T08:43:12.214Z,5.75
2022-08-23T08:46:20.232Z,5.97
2022-08-23T08:49:33.103Z,5.57
2022-08-23T08:52:41.223Z,5.55
2022-08-23T08:55:57.245Z,4.82
2022-08-23T08:59:09.813Z,6.35
2022-08-23T09:02:30.423Z,5.53
2022-08-23T09:05:39.903Z,5.95
2022-08-23T09:09:07.054Z,5.85
2022-08-23T09:12:18.342Z,4.93
2022-08-23T09:15:36.764Z,5.47
2022-08-23T09:18:40.538Z,5.32
2022-08-23T09:22:05.470Z,5.33
2022-08-23T09:25:13.066Z,5.22
2022-08-23T09:28:16.396Z,4.55
2022-08-23T09:31:37.331Z,4.93
2022-08-23T09:34:42.452Z,4.28
2022-08-23T09:38:12.882Z,6.95
2022-08-23T09:41:20.820Z,5.03
2022-08-23T09:44:38.665Z,10.20
2022-08-23T09:47:44.785Z,26.25
2022-08-23T09:50:57.876Z,4.85
2022-08-23T09:54:46.810Z,14.55
2022-08-23T09:57:49.576Z,9.73
2022-08-23T10:01:18.718Z,4.40
2022-08-23T10:04:37.610Z,3.65
2022-08-23T10:07:42.850Z,4.53
2022-08-23T10:10:50.869Z,3.40
2022-08-23T10:13:53.192Z,3.47
2022-08-23T10:17:20.100Z,3.42
2022-08-23T10:20:47.668Z,3.63
2022-08-23T10:24:20.781Z,3.80
2022-08-23T10:27:48.647Z,3.85
2022-08-23T10:31:20.825Z,3.20
2022-08-23T10:34:49.811Z,3.60
2022-08-23T10:38:14.147Z,3.42
2022-08-23T10:41:43.708Z,3.92
2022-08-23T10:45:00.040Z,3.58
2022-08-23T10:48:29.652Z,3.47
2022-08-23T10:51:37.445Z,4.20
2022-08-23T10:55:00.475Z,3.80
2022-08-23T10:58:05.520Z,5.22
2022-08-23T11:01:09.265Z,3.30
2022-08-23T11:04:42.271Z,4.10
2022-08-23T11:08:01.329Z,3.28
2022-08-23T11:11:03.498Z,3.47
2022-08-23T11:14:10.922Z,3.83
2022-08-23T11:17:28.886Z,4.30
2022-08-23T11:20:58.694Z,3.88
2022-08-23T11:24:01.020Z,4.25
2022-08-23T11:27:07.105Z,3.60
2022-08-23T11:30:37.168Z,3.08
2022-08-23T11:33:49.792Z,3.38
2022-08-23T11:37:19.377Z,3.28
2022-08-23T11:40:58.597Z,3.65
2022-08-23T11:44:03.674Z,4.28
2022-08-23T11:47:09.866Z,3.70
2022-08-23T11:50:19.231Z,3.90
2022-08-23T11:53:55.036Z,3.03
2022-08-23T11:57:33.824Z,4.97
2022-08-23T12:01:06.933Z,3.58
2022-08-23T12:04:15.429Z,4.07
2022-08-23T12:07:44.683Z,4.78
2022-08-23T12:10:46.662Z,4.00
2022-08-23T12:13:53.899Z,3.67
2022-08-23T12:16:56.861Z,4.70
2022-08-23T12:20:05.659Z,3.63
2022-08-23T12:23:20.993Z,3.60
2022-08-23T12:26:32.390Z,4.05
2022-08-23T12:29:55.884Z,3.72
2022-08-23T12:33:17.042Z,4.18
2022-08-23T12:37:01.390Z,2.95
2022-08-23T12:40:11.871Z,4.30
2022-08-23T12:43:19.762Z,3.92
2022-08-23T12:46:32.353Z,3.97
2022-08-23T12:49:36.186Z,5.32
2022-08-23T12:52:38.910Z,3.97
2022-08-23T12:58:51.228Z,3.25
2022-08-23T13:01:54.464Z,3.95
2022-08-23T13:05:02.568Z,3.78
2022-08-23T13:08:08.737Z,4.03
2022-08-23T13:11:13.300Z,4.53
2022-08-23T13:14:37.212Z,4.20
2022-08-23T13:17:41.048Z,4.80
2022-08-23T13:20:43.078Z,3.03
2022-08-23T13:23:47.924Z,4.10
2022-08-23T13:26:50.226Z,3.10
2022-08-23T13:30:01.630Z,4.00
2022-08-23T13:33:09.349Z,3.92
2022-08-23T13:36:21.391Z,4.47
2022-08-23T13:39:23.614Z,3.95
2022-08-23T13:42:36.363Z,4.03
2022-08-23T13:45:47.676Z,3.65
2022-08-23T13:48:57.020Z,4.07
2022-08-23T13:55:25.345Z,3.47
2022-08-23T13:58:33.111Z,4.40
2022-08-23T14:01:35.734Z,3.63
2022-08-23T14:07:40.086Z,3.33
2022-08-23T14:10:42.834Z,4.20
2022-08-23T14:13:47.905Z,3.90
2022-08-23T14:16:50.038Z,3.55
2022-08-23T14:20:32.334Z,4.30
2022-08-23T14:23:14.136Z,3.67
2022-08-23T14:26:20.855Z,3.63
2022-08-23T14:29:25.343Z,3.08
2022-08-23T14:32:27.467Z,3.53
2022-08-23T14:35:29.917Z,3.70
2022-08-23T14:38:32.082Z,3.83
2022-08-23T14:41:34.040Z,3.92
2022-08-23T14:44:36.607Z,5.25
2022-08-23T14:50:41.300Z,4.03
2022-08-23T14:53:43.351Z,4.63
2022-08-23T14:56:45.590Z,4.45
2022-08-23T14:59:47.507Z,5.47
2022-08-23T15:02:50.441Z,3.88
2022-08-23T15:05:53.257Z,6.40
2022-08-23T15:08:55.239Z,4.43
2022-08-23T15:15:21.746Z,5.15
2022-08-23T15:18:24.314Z,4.65
2022-08-23T15:21:27.662Z,3.92
2022-08-23T15:24:30.650Z,4.15
2022-08-23T15:27:32.703Z,6.65
2022-08-23T15:30:34.952Z,4.60
2022-08-23T15:33:36.913Z,4.43
2022-08-23T15:36:42.125Z,4.75
2022-08-23T15:39:44.393Z,4.95
2022-08-23T15:42:46.322Z,4.95
2022-08-23T15:45:48.830Z,4.47
2022-08-23T15:49:02.462Z,5.20
2022-08-23T15:52:05.198Z,4.65
2022-08-23T15:58:24.001Z,5.10
2022-08-23T16:01:28.951Z,5.38
2022-08-23T16:04:32.653Z,5.07
2022-08-23T16:07:40.081Z,4.60
2022-08-23T16:10:42.028Z,5.18
2022-08-23T16:13:46.222Z,4.93
2022-08-23T16:16:48.531Z,5.40
2022-08-23T16:19:51.046Z,5.55
2022-08-23T16:22:53.172Z,4.82
2022-08-23T16:25:59.104Z,5.82
2022-08-23T16:29:07.297Z,5.53
2022-08-23T16:32:09.299Z,5.25
2022-08-23T16:35:11.437Z,6.00
2022-08-23T16:38:13.361Z,6.23
2022-08-23T16:41:15.607Z,5.47
2022-08-23T16:44:17.947Z,6.47
2022-08-23T16:47:20.036Z,6.25
2022-08-23T16:50:22.279Z,5.97
2022-08-23T16:53:26.412Z,6.05
2022-08-23T16:56:29.528Z,6.30
2022-08-23T16:59:31.558Z,5.72
2022-08-23T17:02:36.247Z,7.18
2022-08-23T17:05:39.013Z,6.25
2022-08-23T17:08:41.318Z,6.32
2022-08-23T17:11:44.505Z,6.65
2022-08-23T17:14:48.939Z,6.50
2022-08-23T17:17:51.578Z,6.18
2022-08-23T17:20:53.632Z,6.10
2022-08-23T17:23:55.576Z,5.83
2022-08-23T17:26:57.950Z,6.10
2022-08-23T17:30:00.039Z,5.97
2022-08-23T17:33:02.831Z,5.03
2022-08-23T17:39:11.455Z,7.90
2022-08-23T17:42:13.657Z,7.13
2022-08-23T17:45:16.016Z,7.03
2022-08-23T17:48:20.536Z,7.47
2022-08-23T17:51:22.422Z,6.55
2022-08-23T17:54:24.371Z,6.25
2022-08-23T17:57:26.939Z,6.63
2022-08-23T18:00:29.087Z,6.72
2022-08-23T18:03:31.807Z,7.00
2022-08-23T18:06:35.981Z,5.65
2022-08-23T18:09:41.584Z,5.60
2022-08-23T18:12:50.395Z,6.00
2022-08-23T18:15:52.799Z,5.65
2022-08-23T18:18:55.001Z,6.35
2022-08-23T18:22:01.812Z,5.80
2022-08-23T18:25:09.749Z,5.53
2022-08-23T18:28:13.722Z,5.70
2022-08-23T18:31:15.788Z,6.22
2022-08-23T18:34:18.591Z,6.65
2022-08-23T18:37:21.915Z,5.63
2022-08-23T18:40:24.837Z,6.10
2022-08-23T18:43:30.765Z,6.15
2022-08-23T18:46:42.411Z,5.70
2022-08-23T18:49:44.665Z,6.25
2022-08-23T18:52:47.584Z,5.67
2022-08-23T18:55:51.712Z,6.10
2022-08-23T18:58:54.458Z,5.47
2022-08-23T19:01:56.795Z,5.70
2022-08-23T19:04:58.877Z,6.20
2022-08-23T19:08:00.832Z,6.20
2022-08-23T19:11:02.799Z,5.60
2022-08-23T19:14:06.014Z,5.50
2022-08-23T19:17:10.933Z,5.55
2022-08-23T19:20:13.028Z,6.50
2022-08-23T19:23:14.937Z,5.32
2022-08-23T19:26:20.291Z,6.38
2022-08-23T19:29:22.254Z,5.55
2022-08-23T19:32:24.381Z,6.65
2022-08-23T19:35:26.357Z,6.40
2022-08-23T19:38:28.442Z,5.63
2022-08-23T19:41:31.183Z,5.97
2022-08-23T19:44:34.877Z,5.70
2022-08-23T19:47:36.873Z,6.15
2022-08-23T19:50:40.628Z,6.00
2022-08-23T19:54:03.327Z,6.43
2022-08-23T19:57:08.218Z,7.13
2022-08-23T20:00:19.147Z,6.43
2022-08-23T20:03:21.513Z,5.65
2022-08-23T20:06:23.571Z,6.60
2022-08-23T20:09:28.530Z,6.00
2022-08-23T20:12:32.279Z,6.38
2022-08-23T20:15:34.174Z,6.45
2022-08-23T20:18:36.099Z,5.88
2022-08-23T20:21:40.498Z,5.93
2022-08-23T20:24:51.374Z,6.32
2022-08-23T20:27:54.280Z,5.78
2022-08-23T20:30:56.293Z,5.78
2022-08-23T20:33:58.936Z,5.80
2022-08-23T20:37:01.318Z,6.22
2022-08-23T20:40:04.757Z,5.78
2022-08-23T20:43:07.323Z,6.85
2022-08-23T20:46:09.314Z,5.35
2022-08-23T20:49:11.855Z,5.55
2022-08-23T20:52:14.012Z,5.80
2022-08-23T20:55:15.961Z,5.37
2022-08-23T20:58:17.872Z,5.45
2022-08-23T21:01:20.005Z,5.55
2022-08-23T21:04:22.073Z,5.73
2022-08-23T21:07:32.551Z,6.57
2022-08-23T21:10:35.232Z,5.65
2022-08-23T21:13:41.498Z,7.20
2022-08-23T21:16:43.863Z,6.05
2022-08-23T21:19:45.820Z,5.32
2022-08-23T21:22:47.861Z,6.05
2022-08-23T21:25:57.513Z,5.85
2022-08-23T21:28:59.452Z,6.50
2022-08-23T21:32:01.457Z,6.55
2022-08-23T21:35:04.871Z,5.78
2022-08-23T21:38:06.853Z,5.40
2022-08-23T21:41:11.921Z,6.00
2022-08-23T21:44:19.600Z,5.78
2022-08-23T21:47:21.560Z,6.13
2022-08-23T21:50:24.486Z,5.72
2022-08-23T21:53:28.597Z,6.15
2022-08-23T21:56:31.190Z,6.03
2022-08-23T21:59:33.923Z,6.07
2022-08-23T22:02:35.829Z,5.10
2022-08-23T22:05:42.731Z,5.70
2022-08-23T22:08:45.495Z,5.53
2022-08-23T22:11:49.334Z,5.50
2022-08-23T22:14:51.491Z,5.28
2022-08-23T22:17:53.562Z,5.68
2022-08-23T22:20:56.098Z,5.70
2022-08-23T22:23:58.212Z,6.30
2022-08-23T22:27:00.487Z,5.68
2022-08-23T22:30:02.784Z,6.43
2022-08-23T22:33:04.990Z,5.70
2022-08-23T22:36:11.376Z,6.17
2022-08-23T22:39:13.563Z,6.45
2022-08-23T22:42:16.477Z,5.78
2022-08-23T22:45:19.789Z,5.38
2022-08-23T22:48:22.264Z,5.97
2022-08-23T22:51:30.094Z,6.28
2022-08-23T22:54:32.503Z,5.15
2022-08-23T22:57:35.427Z,6.20
2022-08-23T23:00:43.379Z,5.20
2022-08-23T23:03:46.088Z,5.85
2022-08-23T23:06:50.262Z,5.75
2022-08-23T23:09:52.252Z,5.93
2022-08-23T23:12:54.186Z,6.07
2022-08-23T23:15:57.321Z,5.90
2022-08-23T23:22:19.825Z,6.70
2022-08-23T23:25:21.971Z,5.63
2022-08-23T23:28:24.426Z,5.97
2022-08-23T23:31:26.459Z,5.72
2022-08-23T23:34:29.257Z,6.10
2022-08-23T23:37:32.352Z,5.50
2022-08-23T23:40:34.774Z,6.18
2022-08-23T23:43:37.211Z,5.38
2022-08-23T23:46:39.174Z,6.25
2022-08-23T23:49:41.210Z,5.65
2022-08-23T23:52:43.667Z,5.35
2022-08-23T23:55:46.984Z,5.40
2022-08-23T23:58:52.451Z,6.35
